Time;durP1;ratioP1;P1;durP2;ratioP2;P2;SDS_P1;SDS_P2;PMS_P1;PMS_P2;Temp;Humidity;BMP_temperature;BMP_pressure;BME280_temperature;BME280_humidity;BME280_pressure;Samples;Min_cycle;Max_cycle;Signal;HPM_P1;HPM_P2
2021/01/24 00:00:25;;;;;;;12.2;7.799999;;;;;;;-0.87;100;92935.03;;;;
2021/01/24 00:01:26;;;;;;;12.2;7.799999;;;;;;;-0.87;100;92935.03;;;;
2021/01/24 00:02:26;;;;;;;12.2;7.799999;;;;;;;-0.87;100;92935.03;;;;
2021/01/24 00:03:27;;;;;;;12.2;7.799999;;;;;;;-0.87;100;92935.03;;;;
2021/01/24 00:04:27;;;;;;;11.25;6.8;;;;;;;-0.63;100;92956.72;;;;
2021/01/24 00:05:28;;;;;;;11.25;6.8;;;;;;;-0.63;100;92956.72;;;;
2021/01/24 00:06:28;;;;;;;11.25;6.8;;;;;;;-0.63;100;92956.72;;;;
2021/01/24 00:07:29;;;;;;;11.25;6.8;;;;;;;-0.63;100;92956.72;;;;
2021/01/24 00:08:29;;;;;;;11.25;6.8;;;;;;;-0.63;100;92956.72;;;;
2021/01/24 00:09:30;;;;;;;11.25;6.8;;;;;;;-0.63;100;92956.72;;;;
2021/01/24 00:10:30;;;;;;;11.25;6.8;;;;;;;-0.63;100;92956.72;;;;
2021/01/24 00:11:31;;;;;;;11.25;6.8;;;;;;;-0.63;100;92956.72;;;;
2021/01/24 00:12:31;;;;;;;11.25;6.8;;;;;;;-0.63;100;92956.72;;;;
2021/01/24 00:13:32;;;;;;;11.25;6.8;;;;;;;-0.63;100;92956.72;;;;
2021/01/24 00:14:32;;;;;;;11.25;6.8;;;;;;;-0.63;100;92956.72;;;;
2021/01/24 00:15:33;;;;;;;8.95;5.5;;;;;;;-0.29;100;92953.77;;;;
2021/01/24 00:16:33;;;;;;;8.95;5.5;;;;;;;-0.29;100;92953.77;;;;
2021/01/24 00:17:34;;;;;;;8.95;5.5;;;;;;;-0.29;100;92953.77;;;;
2021/01/24 00:18:35;;;;;;;8.95;5.5;;;;;;;-0.29;100;92953.77;;;;
2021/01/24 00:19:35;;;;;;;8.95;5.5;;;;;;;-0.29;100;92953.77;;;;
2021/01/24 00:20:35;;;;;;;8.95;5.5;;;;;;;-0.29;100;92953.77;;;;
2021/01/24 00:21:36;;;;;;;8.95;5.5;;;;;;;-0.29;100;92953.77;;;;
2021/01/24 00:22:36;;;;;;;8.95;5.5;;;;;;;-0.29;100;92953.77;;;;
2021/01/24 00:23:37;;;;;;;8.95;5.5;;;;;;;-0.29;100;92953.77;;;;
2021/01/24 00:24:38;;;;;;;8.95;5.5;;;;;;;-0.29;100;92953.77;;;;
2021/01/24 00:25:38;;;;;;;7.799999;5.299999;;;;;;;-0.03;100;92940.58;;;;
2021/01/24 00:26:39;;;;;;;7.799999;5.299999;;;;;;;-0.03;100;92940.58;;;;
2021/01/24 00:27:39;;;;;;;7.799999;5.299999;;;;;;;-0.03;100;92940.58;;;;
2021/01/24 00:28:40;;;;;;;7.799999;5.299999;;;;;;;-0.03;100;92940.58;;;;
2021/01/24 00:29:40;;;;;;;7.799999;5.299999;;;;;;;-0.03;100;92940.58;;;;
2021/01/24 00:30:41;;;;;;;7.799999;5.299999;;;;;;;-0.03;100;92940.58;;;;
2021/01/24 00:31:41;;;;;;;7.799999;5.299999;;;;;;;-0.03;100;92940.58;;;;
2021/01/24 00:32:42;;;;;;;7.799999;5.299999;;;;;;;-0.03;100;92940.58;;;;
2021/01/24 00:33:42;;;;;;;7.799999;5.299999;;;;;;;-0.03;100;92940.58;;;;
2021/01/24 00:34:44;;;;;;;7.799999;5.299999;;;;;;;-0.03;100;92940.58;;;;
2021/01/24 00:35:44;;;;;;;7.799999;5.299999;;;;;;;-0.03;100;92940.58;;;;
2021/01/24 00:36:45;;;;;;;7.65;4.900001;;;;;;;0.14;100;92933.17;;;;
2021/01/24 00:37:46;;;;;;;7.65;4.900001;;;;;;;0.14;100;92933.17;;;;
2021/01/24 00:38:46;;;;;;;7.65;4.900001;;;;;;;0.14;100;92933.17;;;;
2021/01/24 00:39:47;;;;;;;7.65;4.900001;;;;;;;0.14;100;92933.17;;;;
2021/01/24 00:40:48;;;;;;;7.65;4.900001;;;;;;;0.14;100;92933.17;;;;
2021/01/24 00:41:48;;;;;;;7.65;4.900001;;;;;;;0.14;100;92933.17;;;;
2021/01/24 00:42:49;;;;;;;7.65;4.900001;;;;;;;0.14;100;92933.17;;;;
2021/01/24 00:43:49;;;;;;;7.65;4.900001;;;;;;;0.14;100;92933.17;;;;
2021/01/24 00:44:50;;;;;;;7.65;4.900001;;;;;;;0.14;100;92933.17;;;;
2021/01/24 00:45:50;;;;;;;7.65;4.900001;;;;;;;0.14;100;92933.17;;;;
2021/01/24 00:46:51;;;;;;;7.65;4.900001;;;;;;;0.14;100;92933.17;;;;
2021/01/24 00:47:51;;;;;;;6.949998;5.05;;;;;;;0.37;100;92989.29;;;;
2021/01/24 00:48:51;;;;;;;6.949998;5.05;;;;;;;0.37;100;92989.29;;;;
2021/01/24 00:49:52;;;;;;;6.949998;5.05;;;;;;;0.37;100;92989.29;;;;
2021/01/24 00:50:54;;;;;;;6.949998;5.05;;;;;;;0.37;100;92989.29;;;;
2021/01/24 00:51:55;;;;;;;6.949998;5.05;;;;;;;0.37;100;92989.29;;;;
2021/01/24 00:52:55;;;;;;;6.949998;5.05;;;;;;;0.37;100;92989.29;;;;
2021/01/24 00:53:56;;;;;;;6.949998;5.05;;;;;;;0.37;100;92989.29;;;;
2021/01/24 00:54:57;;;;;;;6.949998;5.05;;;;;;;0.37;100;92989.29;;;;
2021/01/24 00:55:57;;;;;;;6.949998;5.05;;;;;;;0.37;100;92989.29;;;;
2021/01/24 00:56:58;;;;;;;6.949998;5.05;;;;;;;0.37;100;92989.29;;;;
2021/01/24 00:57:58;;;;;;;5.550001;4.199999;;;;;;;0.56;100;92976.73;;;;
2021/01/24 00:58:59;;;;;;;5.550001;4.199999;;;;;;;0.56;100;92976.73;;;;
2021/01/24 01:00:00;;;;;;;5.550001;4.199999;;;;;;;0.56;100;92976.73;;;;
2021/01/24 01:01:00;;;;;;;5.550001;4.199999;;;;;;;0.56;100;92976.73;;;;
2021/01/24 01:02:01;;;;;;;5.550001;4.199999;;;;;;;0.56;100;92976.73;;;;
2021/01/24 01:03:02;;;;;;;5.550001;4.199999;;;;;;;0.56;100;92976.73;;;;
2021/01/24 01:04:03;;;;;;;5.550001;4.199999;;;;;;;0.56;100;92976.73;;;;
2021/01/24 01:05:04;;;;;;;5.550001;4.199999;;;;;;;0.56;100;92976.73;;;;
2021/01/24 01:06:06;;;;;;;5.550001;4.199999;;;;;;;0.56;100;92976.73;;;;
2021/01/24 01:07:07;;;;;;;5.550001;4.199999;;;;;;;0.56;100;92976.73;;;;
2021/01/24 01:08:07;;;;;;;5.550001;4.199999;;;;;;;0.56;100;92976.73;;;;
2021/01/24 01:09:08;;;;;;;6.85;4.35;;;;;;;0.66;100;92986.13;;;;
2021/01/24 01:10:08;;;;;;;6.85;4.35;;;;;;;0.66;100;92986.13;;;;
2021/01/24 01:11:10;;;;;;;6.85;4.35;;;;;;;0.66;100;92986.13;;;;
2021/01/24 01:12:10;;;;;;;6.85;4.35;;;;;;;0.66;100;92986.13;;;;
2021/01/24 01:13:11;;;;;;;6.85;4.35;;;;;;;0.66;100;92986.13;;;;
2021/01/24 01:14:11;;;;;;;6.85;4.35;;;;;;;0.66;100;92986.13;;;;
2021/01/24 01:15:12;;;;;;;6.85;4.35;;;;;;;0.66;100;92986.13;;;;
2021/01/24 01:16:13;;;;;;;6.85;4.35;;;;;;;0.66;100;92986.13;;;;
2021/01/24 01:17:14;;;;;;;6.85;4.35;;;;;;;0.66;100;92986.13;;;;
2021/01/24 01:18:14;;;;;;;6.85;4.35;;;;;;;0.66;100;92986.13;;;;
2021/01/24 01:19:15;;;;;;;5.000001;3.65;;;;;;;0.69;100;93005.57;;;;
2021/01/24 01:20:15;;;;;;;5.000001;3.65;;;;;;;0.69;100;93005.57;;;;
2021/01/24 01:21:16;;;;;;;5.000001;3.65;;;;;;;0.69;100;93005.57;;;;
2021/01/24 01:22:17;;;;;;;5.000001;3.65;;;;;;;0.69;100;93005.57;;;;
2021/01/24 01:23:17;;;;;;;5.000001;3.65;;;;;;;0.69;100;93005.57;;;;
2021/01/24 01:24:18;;;;;;;5.000001;3.65;;;;;;;0.69;100;93005.57;;;;
2021/01/24 01:25:18;;;;;;;5.000001;3.65;;;;;;;0.69;100;93005.57;;;;
2021/01/24 01:26:19;;;;;;;5.000001;3.65;;;;;;;0.69;100;93005.57;;;;
2021/01/24 01:27:20;;;;;;;5.000001;3.65;;;;;;;0.69;100;93005.57;;;;
2021/01/24 01:28:20;;;;;;;5.000001;3.65;;;;;;;0.69;100;93005.57;;;;
2021/01/24 01:29:21;;;;;;;5.000001;3.65;;;;;;;0.69;100;93005.57;;;;
2021/01/24 01:30:22;;;;;;;5.5;4.25;;;;;;;0.65;100;93002.26;;;;
2021/01/24 01:31:23;;;;;;;5.5;4.25;;;;;;;0.65;100;93002.26;;;;
2021/01/24 01:32:24;;;;;;;5.5;4.25;;;;;;;0.65;100;93002.26;;;;
2021/01/24 01:33:24;;;;;;;5.5;4.25;;;;;;;0.65;100;93002.26;;;;
2021/01/24 01:34:25;;;;;;;5.5;4.25;;;;;;;0.65;100;93002.26;;;;
2021/01/24 01:35:25;;;;;;;5.5;4.25;;;;;;;0.65;100;93002.26;;;;
2021/01/24 01:36:26;;;;;;;5.5;4.25;;;;;;;0.65;100;93002.26;;;;
2021/01/24 01:37:26;;;;;;;5.5;4.25;;;;;;;0.65;100;93002.26;;;;
2021/01/24 01:38:27;;;;;;;5.5;4.25;;;;;;;0.65;100;93002.26;;;;
2021/01/24 01:39:28;;;;;;;5.5;4.25;;;;;;;0.65;100;93002.26;;;;
2021/01/24 01:40:28;;;;;;;6.05;3.85;;;;;;;0.4;100;92997.71;;;;
2021/01/24 01:41:29;;;;;;;6.05;3.85;;;;;;;0.4;100;92997.71;;;;
2021/01/24 01:42:30;;;;;;;6.05;3.85;;;;;;;0.4;100;92997.71;;;;
2021/01/24 01:43:31;;;;;;;6.05;3.85;;;;;;;0.4;100;92997.71;;;;
2021/01/24 01:44:31;;;;;;;6.05;3.85;;;;;;;0.4;100;92997.71;;;;
2021/01/24 01:45:32;;;;;;;6.05;3.85;;;;;;;0.4;100;92997.71;;;;
2021/01/24 01:46:32;;;;;;;6.05;3.85;;;;;;;0.4;100;92997.71;;;;
2021/01/24 01:47:33;;;;;;;6.05;3.85;;;;;;;0.4;100;92997.71;;;;
2021/01/24 01:48:34;;;;;;;6.05;3.85;;;;;;;0.4;100;92997.71;;;;
2021/01/24 01:49:35;;;;;;;6.05;3.85;;;;;;;0.4;100;92997.71;;;;
2021/01/24 01:50:36;;;;;;;6.05;3.85;;;;;;;0.4;100;92997.71;;;;
2021/01/24 01:51:37;;;;;;;3.15;2.3;;;;;;;0.18;100;92985.93;;;;
2021/01/24 01:52:37;;;;;;;3.15;2.3;;;;;;;0.18;100;92985.93;;;;
2021/01/24 01:53:38;;;;;;;3.15;2.3;;;;;;;0.18;100;92985.93;;;;
2021/01/24 01:54:39;;;;;;;3.15;2.3;;;;;;;0.18;100;92985.93;;;;
2021/01/24 01:55:43;;;;;;;3.15;2.3;;;;;;;0.18;100;92985.93;;;;
2021/01/24 01:56:43;;;;;;;3.15;2.3;;;;;;;0.18;100;92985.93;;;;
2021/01/24 01:57:44;;;;;;;3.15;2.3;;;;;;;0.18;100;92985.93;;;;
2021/01/24 01:58:44;;;;;;;3.15;2.3;;;;;;;0.18;100;92985.93;;;;
2021/01/24 01:59:45;;;;;;;3.15;2.3;;;;;;;0.18;100;92985.93;;;;
2021/01/24 02:00:46;;;;;;;3.15;2.3;;;;;;;0.18;100;92985.93;;;;
2021/01/24 02:01:49;;;;;;;2;1.7;;;;;;;0.26;100;93001.62;;;;
2021/01/24 02:03:01;;;;;;;2;1.7;;;;;;;0.26;100;93001.62;;;;
2021/01/24 02:04:15;;;;;;;2;1.7;;;;;;;0.26;100;93001.62;;;;
2021/01/24 02:05:20;;;;;;;2;1.7;;;;;;;0.26;100;93001.62;;;;
2021/01/24 02:06:31;;;;;;;2;1.7;;;;;;;0.26;100;93001.62;;;;
2021/01/24 02:07:37;;;;;;;2;1.7;;;;;;;0.26;100;93001.62;;;;
2021/01/24 02:08:42;;;;;;;2;1.7;;;;;;;0.26;100;93001.62;;;;
2021/01/24 02:09:51;;;;;;;2;1.7;;;;;;;0.26;100;93001.62;;;;
2021/01/24 02:10:56;;;;;;;2;1.7;;;;;;;0.26;100;93001.62;;;;
2021/01/24 02:12:04;;;;;;;2;1.7;;;;;;;0.26;100;93001.62;;;;
2021/01/24 02:13:13;;;;;;;2.2;1.6;;;;;;;0.34;100;93009.67;;;;
2021/01/24 02:14:27;;;;;;;2.2;1.6;;;;;;;0.34;100;93009.67;;;;
2021/01/24 02:15:30;;;;;;;2.2;1.6;;;;;;;0.34;100;93009.67;;;;
2021/01/24 02:16:32;;;;;;;2.2;1.6;;;;;;;0.34;100;93009.67;;;;
2021/01/24 02:17:36;;;;;;;2.2;1.6;;;;;;;0.34;100;93009.67;;;;
2021/01/24 02:18:42;;;;;;;2.2;1.6;;;;;;;0.34;100;93009.67;;;;
2021/01/24 02:19:45;;;;;;;2.2;1.6;;;;;;;0.34;100;93009.67;;;;
2021/01/24 02:20:54;;;;;;;2.2;1.6;;;;;;;0.34;100;93009.67;;;;
2021/01/24 02:22:03;;;;;;;2.2;1.6;;;;;;;0.34;100;93009.67;;;;
2021/01/24 02:23:07;;;;;;;2.25;1.45;;;;;;;0.34;100;93028.25;;;;
2021/01/24 02:24:09;;;;;;;2.25;1.45;;;;;;;0.34;100;93028.25;;;;
2021/01/24 02:25:15;;;;;;;2.25;1.45;;;;;;;0.34;100;93028.25;;;;
2021/01/24 02:26:19;;;;;;;2.25;1.45;;;;;;;0.34;100;93028.25;;;;
2021/01/24 02:27:29;;;;;;;2.25;1.45;;;;;;;0.34;100;93028.25;;;;
2021/01/24 02:28:39;;;;;;;2.25;1.45;;;;;;;0.34;100;93028.25;;;;
2021/01/24 02:29:53;;;;;;;2.25;1.45;;;;;;;0.34;100;93028.25;;;;
2021/01/24 02:31:05;;;;;;;2.25;1.45;;;;;;;0.34;100;93028.25;;;;
2021/01/24 02:32:06;;;;;;;2.25;1.45;;;;;;;0.34;100;93028.25;;;;
2021/01/24 02:33:08;;;;;;;2.25;1.45;;;;;;;0.34;100;93028.25;;;;
2021/01/24 02:34:10;;;;;;;1.25;1.15;;;;;;;0.46;100;93027.32;;;;
2021/01/24 02:35:15;;;;;;;1.25;1.15;;;;;;;0.46;100;93027.32;;;;
2021/01/24 02:36:16;;;;;;;1.25;1.15;;;;;;;0.46;100;93027.32;;;;
2021/01/24 02:37:19;;;;;;;1.25;1.15;;;;;;;0.46;100;93027.32;;;;
2021/01/24 02:38:20;;;;;;;1.25;1.15;;;;;;;0.46;100;93027.32;;;;
2021/01/24 02:39:22;;;;;;;1.25;1.15;;;;;;;0.46;100;93027.32;;;;
2021/01/24 02:40:23;;;;;;;1.25;1.15;;;;;;;0.46;100;93027.32;;;;
2021/01/24 02:41:25;;;;;;;1.25;1.15;;;;;;;0.46;100;93027.32;;;;
2021/01/24 02:42:25;;;;;;;1.25;1.15;;;;;;;0.46;100;93027.32;;;;
2021/01/24 02:43:27;;;;;;;1.25;1.15;;;;;;;0.46;100;93027.32;;;;
2021/01/24 02:44:29;;;;;;;1.25;1.15;;;;;;;0.43;100;93032.56;;;;
2021/01/24 02:45:31;;;;;;;1.25;1.15;;;;;;;0.43;100;93032.56;;;;
2021/01/24 02:46:33;;;;;;;1.25;1.15;;;;;;;0.43;100;93032.56;;;;
2021/01/24 02:47:34;;;;;;;1.25;1.15;;;;;;;0.43;100;93032.56;;;;
2021/01/24 02:48:37;;;;;;;1.25;1.15;;;;;;;0.43;100;93032.56;;;;
2021/01/24 02:49:37;;;;;;;1.25;1.15;;;;;;;0.43;100;93032.56;;;;
2021/01/24 02:50:39;;;;;;;1.25;1.15;;;;;;;0.43;100;93032.56;;;;
2021/01/24 02:51:41;;;;;;;1.25;1.15;;;;;;;0.43;100;93032.56;;;;
2021/01/24 02:52:42;;;;;;;1.25;1.15;;;;;;;0.43;100;93032.56;;;;
2021/01/24 02:53:45;;;;;;;1.25;1.15;;;;;;;0.43;100;93032.56;;;;
2021/01/24 02:54:48;;;;;;;1.25;1.15;;;;;;;0.43;100;93032.56;;;;
2021/01/24 02:55:49;;;;;;;1.3;1.2;;;;;;;0.41;100;93034.25;;;;
2021/01/24 02:56:50;;;;;;;1.3;1.2;;;;;;;0.41;100;93034.25;;;;
2021/01/24 02:57:50;;;;;;;1.3;1.2;;;;;;;0.41;100;93034.25;;;;
2021/01/24 02:58:51;;;;;;;1.3;1.2;;;;;;;0.41;100;93034.25;;;;
2021/01/24 02:59:53;;;;;;;1.3;1.2;;;;;;;0.41;100;93034.25;;;;
2021/01/24 03:00:53;;;;;;;1.3;1.2;;;;;;;0.41;100;93034.25;;;;
2021/01/24 03:01:54;;;;;;;1.3;1.2;;;;;;;0.41;100;93034.25;;;;
2021/01/24 03:02:54;;;;;;;1.3;1.2;;;;;;;0.41;100;93034.25;;;;
2021/01/24 03:03:55;;;;;;;1.3;1.2;;;;;;;0.41;100;93034.25;;;;
2021/01/24 03:04:56;;;;;;;1.3;1.2;;;;;;;0.41;100;93034.25;;;;
2021/01/24 03:05:56;;;;;;;1.8;1.15;;;;;;;0.42;100;93039.33;;;;
2021/01/24 03:06:57;;;;;;;1.8;1.15;;;;;;;0.42;100;93039.33;;;;
2021/01/24 03:07:57;;;;;;;1.8;1.15;;;;;;;0.42;100;93039.33;;;;
2021/01/24 03:08:58;;;;;;;1.8;1.15;;;;;;;0.42;100;93039.33;;;;
2021/01/24 03:09:59;;;;;;;1.8;1.15;;;;;;;0.42;100;93039.33;;;;
2021/01/24 03:11:00;;;;;;;1.8;1.15;;;;;;;0.42;100;93039.33;;;;
2021/01/24 03:12:03;;;;;;;1.8;1.15;;;;;;;0.42;100;93039.33;;;;
2021/01/24 03:13:05;;;;;;;1.8;1.15;;;;;;;0.42;100;93039.33;;;;
2021/01/24 03:14:13;;;;;;;1.8;1.15;;;;;;;0.42;100;93039.33;;;;
2021/01/24 03:15:18;;;;;;;1.8;1.15;;;;;;;0.42;100;93039.33;;;;
2021/01/24 03:16:21;;;;;;;1.2;1.1;;;;;;;0.38;100;93043.06;;;;
2021/01/24 03:17:23;;;;;;;1.2;1.1;;;;;;;0.38;100;93043.06;;;;
2021/01/24 03:18:25;;;;;;;1.2;1.1;;;;;;;0.38;100;93043.06;;;;
2021/01/24 03:19:29;;;;;;;1.2;1.1;;;;;;;0.38;100;93043.06;;;;
2021/01/24 03:20:32;;;;;;;1.2;1.1;;;;;;;0.38;100;93043.06;;;;
2021/01/24 03:21:35;;;;;;;1.2;1.1;;;;;;;0.38;100;93043.06;;;;
2021/01/24 03:22:36;;;;;;;1.2;1.1;;;;;;;0.38;100;93043.06;;;;
2021/01/24 03:23:37;;;;;;;1.2;1.1;;;;;;;0.38;100;93043.06;;;;
2021/01/24 03:24:39;;;;;;;1.2;1.1;;;;;;;0.38;100;93043.06;;;;
2021/01/24 03:25:43;;;;;;;1.2;1.1;;;;;;;0.38;100;93043.06;;;;
2021/01/24 03:26:43;;;;;;;1.2;1.1;;;;;;;0.38;100;93043.06;;;;
2021/01/24 03:27:45;;;;;;;1.2;1.1;;;;;;;0.33;100;93047.85;;;;
2021/01/24 03:28:45;;;;;;;1.2;1.1;;;;;;;0.33;100;93047.85;;;;
2021/01/24 03:29:47;;;;;;;1.2;1.1;;;;;;;0.33;100;93047.85;;;;
2021/01/24 03:30:47;;;;;;;1.2;1.1;;;;;;;0.33;100;93047.85;;;;
2021/01/24 03:31:48;;;;;;;1.2;1.1;;;;;;;0.33;100;93047.85;;;;
2021/01/24 03:32:49;;;;;;;1.2;1.1;;;;;;;0.33;100;93047.85;;;;
2021/01/24 03:33:50;;;;;;;1.2;1.1;;;;;;;0.33;100;93047.85;;;;
2021/01/24 03:34:52;;;;;;;1.2;1.1;;;;;;;0.33;100;93047.85;;;;
2021/01/24 03:35:53;;;;;;;1.2;1.1;;;;;;;0.33;100;93047.85;;;;
2021/01/24 03:36:53;;;;;;;1.2;1.1;;;;;;;0.33;100;93047.85;;;;
2021/01/24 03:37:54;;;;;;;1.2;1.1;;;;;;;0.33;100;93061.52;;;;
2021/01/24 03:38:55;;;;;;;1.2;1.1;;;;;;;0.33;100;93061.52;;;;
2021/01/24 03:39:55;;;;;;;1.2;1.1;;;;;;;0.33;100;93061.52;;;;
2021/01/24 03:40:56;;;;;;;1.2;1.1;;;;;;;0.33;100;93061.52;;;;
2021/01/24 03:41:57;;;;;;;1.2;1.1;;;;;;;0.33;100;93061.52;;;;
2021/01/24 03:42:57;;;;;;;1.2;1.1;;;;;;;0.33;100;93061.52;;;;
2021/01/24 03:43:58;;;;;;;1.2;1.1;;;;;;;0.33;100;93061.52;;;;
2021/01/24 03:44:58;;;;;;;1.2;1.1;;;;;;;0.33;100;93061.52;;;;
2021/01/24 03:45:59;;;;;;;1.2;1.1;;;;;;;0.33;100;93061.52;;;;
2021/01/24 03:46:59;;;;;;;1.2;1.1;;;;;;;0.33;100;93061.52;;;;
2021/01/24 03:48:00;;;;;;;1.2;1.1;;;;;;;0.33;100;93061.52;;;;
2021/01/24 03:49:01;;;;;;;1.1;1;;;;;;;0.41;100;93078.45;;;;
2021/01/24 03:50:02;;;;;;;1.1;1;;;;;;;0.41;100;93078.45;;;;
2021/01/24 03:51:04;;;;;;;1.1;1;;;;;;;0.41;100;93078.45;;;;
2021/01/24 03:52:04;;;;;;;1.1;1;;;;;;;0.41;100;93078.45;;;;
2021/01/24 03:53:05;;;;;;;1.1;1;;;;;;;0.41;100;93078.45;;;;
2021/01/24 03:54:06;;;;;;;1.1;1;;;;;;;0.41;100;93078.45;;;;
2021/01/24 03:55:06;;;;;;;1.1;1;;;;;;;0.41;100;93078.45;;;;
2021/01/24 03:56:08;;;;;;;1.1;1;;;;;;;0.41;100;93078.45;;;;
2021/01/24 03:57:08;;;;;;;1.1;1;;;;;;;0.41;100;93078.45;;;;
2021/01/24 03:58:09;;;;;;;1.1;1;;;;;;;0.41;100;93078.45;;;;
2021/01/24 03:59:09;;;;;;;1.5;1.2;;;;;;;0.5;100;93090.35;;;;
2021/01/24 04:00:10;;;;;;;1.5;1.2;;;;;;;0.5;100;93090.35;;;;
2021/01/24 04:01:12;;;;;;;1.5;1.2;;;;;;;0.5;100;93090.35;;;;
2021/01/24 04:02:12;;;;;;;1.5;1.2;;;;;;;0.5;100;93090.35;;;;
2021/01/24 04:03:13;;;;;;;1.5;1.2;;;;;;;0.5;100;93090.35;;;;
2021/01/24 04:04:13;;;;;;;1.5;1.2;;;;;;;0.5;100;93090.35;;;;
2021/01/24 04:05:14;;;;;;;1.5;1.2;;;;;;;0.5;100;93090.35;;;;
2021/01/24 04:06:14;;;;;;;1.5;1.2;;;;;;;0.5;100;93090.35;;;;
2021/01/24 04:07:15;;;;;;;1.5;1.2;;;;;;;0.5;100;93090.35;;;;
2021/01/24 04:08:16;;;;;;;1.5;1.2;;;;;;;0.5;100;93090.35;;;;
2021/01/24 04:09:16;;;;;;;1.5;1.2;;;;;;;0.5;100;93090.35;;;;
2021/01/24 04:10:17;;;;;;;0.9;0.9;;;;;;;0.71;100;93093.77;;;;
2021/01/24 04:11:17;;;;;;;0.9;0.9;;;;;;;0.71;100;93093.77;;;;
2021/01/24 04:12:18;;;;;;;0.9;0.9;;;;;;;0.71;100;93093.77;;;;
2021/01/24 04:13:19;;;;;;;0.9;0.9;;;;;;;0.71;100;93093.77;;;;
2021/01/24 04:14:20;;;;;;;0.9;0.9;;;;;;;0.71;100;93093.77;;;;
2021/01/24 04:15:20;;;;;;;0.9;0.9;;;;;;;0.71;100;93093.77;;;;
2021/01/24 04:16:20;;;;;;;0.9;0.9;;;;;;;0.71;100;93093.77;;;;
2021/01/24 04:17:21;;;;;;;0.9;0.9;;;;;;;0.71;100;93093.77;;;;
2021/01/24 04:18:21;;;;;;;0.9;0.9;;;;;;;0.71;100;93093.77;;;;
2021/01/24 04:19:22;;;;;;;0.9;0.9;;;;;;;0.71;100;93093.77;;;;
2021/01/24 04:20:23;;;;;;;1;1;;;;;;;0.94;100;93103.59;;;;
2021/01/24 04:21:23;;;;;;;1;1;;;;;;;0.94;100;93103.59;;;;
2021/01/24 04:22:23;;;;;;;1;1;;;;;;;0.94;100;93103.59;;;;
2021/01/24 04:23:24;;;;;;;1;1;;;;;;;0.94;100;93103.59;;;;
2021/01/24 04:24:24;;;;;;;1;1;;;;;;;0.94;100;93103.59;;;;
2021/01/24 04:25:25;;;;;;;1;1;;;;;;;0.94;100;93103.59;;;;
2021/01/24 04:26:26;;;;;;;1;1;;;;;;;0.94;100;93103.59;;;;
2021/01/24 04:27:26;;;;;;;1;1;;;;;;;0.94;100;93103.59;;;;
2021/01/24 04:28:27;;;;;;;1;1;;;;;;;0.94;100;93103.59;;;;
2021/01/24 04:29:27;;;;;;;1;1;;;;;;;0.94;100;93103.59;;;;
2021/01/24 04:30:28;;;;;;;1;1;;;;;;;0.94;100;93103.59;;;;
2021/01/24 04:31:28;;;;;;;1.3;1;;;;;;;1.2;100;93120.81;;;;
2021/01/24 04:32:29;;;;;;;1.3;1;;;;;;;1.2;100;93120.81;;;;
2021/01/24 04:33:29;;;;;;;1.3;1;;;;;;;1.2;100;93120.81;;;;
2021/01/24 04:34:30;;;;;;;1.3;1;;;;;;;1.2;100;93120.81;;;;
2021/01/24 04:35:30;;;;;;;1.3;1;;;;;;;1.2;100;93120.81;;;;
2021/01/24 04:36:31;;;;;;;1.3;1;;;;;;;1.2;100;93120.81;;;;
2021/01/24 04:37:31;;;;;;;1.3;1;;;;;;;1.2;100;93120.81;;;;
2021/01/24 04:38:32;;;;;;;1.3;1;;;;;;;1.2;100;93120.81;;;;
2021/01/24 04:39:33;;;;;;;1.3;1;;;;;;;1.2;100;93120.81;;;;
2021/01/24 04:40:33;;;;;;;1.3;1;;;;;;;1.2;100;93120.81;;;;
2021/01/24 04:41:33;;;;;;;1.3;1;;;;;;;1.2;100;93120.81;;;;
2021/01/24 04:42:36;;;;;;;1.1;1;;;;;;;1.4;100;93155.8;;;;
2021/01/24 04:43:37;;;;;;;1.1;1;;;;;;;1.4;100;93155.8;;;;
2021/01/24 04:44:39;;;;;;;1.1;1;;;;;;;1.4;100;93155.8;;;;
2021/01/24 04:45:41;;;;;;;1.1;1;;;;;;;1.4;100;93155.8;;;;
2021/01/24 04:46:42;;;;;;;1.1;1;;;;;;;1.4;100;93155.8;;;;
2021/01/24 04:47:45;;;;;;;1.1;1;;;;;;;1.4;100;93155.8;;;;
2021/01/24 04:48:46;;;;;;;1.1;1;;;;;;;1.4;100;93155.8;;;;
2021/01/24 04:49:47;;;;;;;1.1;1;;;;;;;1.4;100;93155.8;;;;
2021/01/24 04:50:48;;;;;;;1.1;1;;;;;;;1.4;100;93155.8;;;;
2021/01/24 04:51:49;;;;;;;1.1;1;;;;;;;1.4;100;93155.8;;;;
2021/01/24 04:52:49;;;;;;;0.8;0.8;;;;;;;1.21;100;93160.14;;;;
2021/01/24 04:53:50;;;;;;;0.8;0.8;;;;;;;1.21;100;93160.14;;;;
2021/01/24 04:54:51;;;;;;;0.8;0.8;;;;;;;1.21;100;93160.14;;;;
2021/01/24 04:55:52;;;;;;;0.8;0.8;;;;;;;1.21;100;93160.14;;;;
2021/01/24 04:56:53;;;;;;;0.8;0.8;;;;;;;1.21;100;93160.14;;;;
2021/01/24 04:57:54;;;;;;;0.8;0.8;;;;;;;1.21;100;93160.14;;;;
2021/01/24 04:58:56;;;;;;;0.8;0.8;;;;;;;1.21;100;93160.14;;;;
2021/01/24 04:59:59;;;;;;;0.8;0.8;;;;;;;1.21;100;93160.14;;;;
2021/01/24 05:01:00;;;;;;;0.8;0.8;;;;;;;1.21;100;93160.14;;;;
2021/01/24 05:02:01;;;;;;;0.8;0.8;;;;;;;1.21;100;93160.14;;;;
2021/01/24 05:03:02;;;;;;;0.8;0.8;;;;;;;1.21;100;93160.14;;;;
2021/01/24 05:04:03;;;;;;;0.8;0.8;;;;;;;1;100;93180.13;;;;
2021/01/24 05:05:04;;;;;;;0.8;0.8;;;;;;;1;100;93180.13;;;;
2021/01/24 05:06:06;;;;;;;0.8;0.8;;;;;;;1;100;93180.13;;;;
2021/01/24 05:07:06;;;;;;;0.8;0.8;;;;;;;1;100;93180.13;;;;
2021/01/24 05:08:07;;;;;;;0.8;0.8;;;;;;;1;100;93180.13;;;;
2021/01/24 05:09:10;;;;;;;0.8;0.8;;;;;;;1;100;93180.13;;;;
2021/01/24 05:10:12;;;;;;;0.8;0.8;;;;;;;1;100;93180.13;;;;
2021/01/24 05:11:15;;;;;;;0.8;0.8;;;;;;;1;100;93180.13;;;;
2021/01/24 05:12:15;;;;;;;0.8;0.8;;;;;;;1;100;93180.13;;;;
2021/01/24 05:13:18;;;;;;;0.8;0.8;;;;;;;1;100;93180.13;;;;
2021/01/24 05:14:24;;;;;;;0.85;0.85;;;;;;;0.88;100;93200.94;;;;
2021/01/24 05:15:25;;;;;;;0.85;0.85;;;;;;;0.88;100;93200.94;;;;
2021/01/24 05:16:27;;;;;;;0.85;0.85;;;;;;;0.88;100;93200.94;;;;
2021/01/24 05:17:28;;;;;;;0.85;0.85;;;;;;;0.88;100;93200.94;;;;
2021/01/24 05:18:29;;;;;;;0.85;0.85;;;;;;;0.88;100;93200.94;;;;
2021/01/24 05:19:29;;;;;;;0.85;0.85;;;;;;;0.88;100;93200.94;;;;
2021/01/24 05:20:33;;;;;;;0.85;0.85;;;;;;;0.88;100;93200.94;;;;
2021/01/24 05:21:33;;;;;;;0.85;0.85;;;;;;;0.88;100;93200.94;;;;
2021/01/24 05:22:35;;;;;;;0.85;0.85;;;;;;;0.88;100;93200.94;;;;
2021/01/24 05:23:39;;;;;;;0.85;0.85;;;;;;;0.88;100;93200.94;;;;
2021/01/24 05:24:40;;;;;;;0.9;0.9;;;;;;;0.76;100;93224.94;;;;
2021/01/24 05:25:41;;;;;;;0.9;0.9;;;;;;;0.76;100;93224.94;;;;
2021/01/24 05:26:42;;;;;;;0.9;0.9;;;;;;;0.76;100;93224.94;;;;
2021/01/24 05:27:44;;;;;;;0.9;0.9;;;;;;;0.76;100;93224.94;;;;
2021/01/24 05:28:45;;;;;;;0.9;0.9;;;;;;;0.76;100;93224.94;;;;
2021/01/24 05:29:47;;;;;;;0.9;0.9;;;;;;;0.76;100;93224.94;;;;
2021/01/24 05:30:47;;;;;;;0.9;0.9;;;;;;;0.76;100;93224.94;;;;
2021/01/24 05:31:49;;;;;;;0.9;0.9;;;;;;;0.76;100;93224.94;;;;
2021/01/24 05:32:51;;;;;;;0.9;0.9;;;;;;;0.76;100;93224.94;;;;
2021/01/24 05:33:52;;;;;;;0.9;0.9;;;;;;;0.76;100;93224.94;;;;
2021/01/24 05:34:57;;;;;;;0.9;0.9;;;;;;;0.76;100;93224.94;;;;
2021/01/24 05:35:57;;;;;;;0.9;0.9;;;;;;;0.67;100;93250.59;;;;
2021/01/24 05:36:58;;;;;;;0.9;0.9;;;;;;;0.67;100;93250.59;;;;
2021/01/24 05:38:00;;;;;;;0.9;0.9;;;;;;;0.67;100;93250.59;;;;
2021/01/24 05:39:01;;;;;;;0.9;0.9;;;;;;;0.67;100;93250.59;;;;
2021/01/24 05:40:02;;;;;;;0.9;0.9;;;;;;;0.67;100;93250.59;;;;
2021/01/24 05:41:05;;;;;;;0.9;0.9;;;;;;;0.67;100;93250.59;;;;
2021/01/24 05:42:07;;;;;;;0.9;0.9;;;;;;;0.67;100;93250.59;;;;
2021/01/24 05:43:11;;;;;;;0.9;0.9;;;;;;;0.67;100;93250.59;;;;
2021/01/24 05:44:13;;;;;;;0.9;0.9;;;;;;;0.67;100;93250.59;;;;
2021/01/24 05:45:15;;;;;;;0.9;0.9;;;;;;;0.67;100;93250.59;;;;
2021/01/24 05:46:17;;;;;;;1.1;1;;;;;;;0.61;100;93290.12;;;;
2021/01/24 05:47:18;;;;;;;1.1;1;;;;;;;0.61;100;93290.12;;;;
2021/01/24 05:48:18;;;;;;;1.1;1;;;;;;;0.61;100;93290.12;;;;
2021/01/24 05:49:20;;;;;;;1.1;1;;;;;;;0.61;100;93290.12;;;;
2021/01/24 05:50:22;;;;;;;1.1;1;;;;;;;0.61;100;93290.12;;;;
2021/01/24 05:51:22;;;;;;;1.1;1;;;;;;;0.61;100;93290.12;;;;
2021/01/24 05:52:23;;;;;;;1.1;1;;;;;;;0.61;100;93290.12;;;;
2021/01/24 05:53:26;;;;;;;1.1;1;;;;;;;0.61;100;93290.12;;;;
2021/01/24 05:54:26;;;;;;;1.1;1;;;;;;;0.61;100;93290.12;;;;
2021/01/24 05:55:44;;;;;;;1.1;1;;;;;;;0.61;100;93290.12;;;;
2021/01/24 05:56:45;;;;;;;1.3;0.85;;;;;;;0.52;100;93297.18;;;;
2021/01/24 05:57:56;;;;;;;1.3;0.85;;;;;;;0.52;100;93297.18;;;;
2021/01/24 05:58:57;;;;;;;1.3;0.85;;;;;;;0.52;100;93297.18;;;;
2021/01/24 05:59:59;;;;;;;1.3;0.85;;;;;;;0.52;100;93297.18;;;;
2021/01/24 06:00:59;;;;;;;1.3;0.85;;;;;;;0.52;100;93297.18;;;;
2021/01/24 06:02:00;;;;;;;1.3;0.85;;;;;;;0.52;100;93297.18;;;;
2021/01/24 06:03:01;;;;;;;1.3;0.85;;;;;;;0.52;100;93297.18;;;;
2021/01/24 06:04:02;;;;;;;1.3;0.85;;;;;;;0.52;100;93297.18;;;;
2021/01/24 06:05:03;;;;;;;1.3;0.85;;;;;;;0.52;100;93297.18;;;;
2021/01/24 06:06:05;;;;;;;1.3;0.85;;;;;;;0.52;100;93297.18;;;;
2021/01/24 06:07:06;;;;;;;0.95;0.9;;;;;;;0.29;100;93307.14;;;;
2021/01/24 06:08:06;;;;;;;0.95;0.9;;;;;;;0.29;100;93307.14;;;;
2021/01/24 06:09:08;;;;;;;0.95;0.9;;;;;;;0.29;100;93307.14;;;;
2021/01/24 06:10:08;;;;;;;0.95;0.9;;;;;;;0.29;100;93307.14;;;;
2021/01/24 06:11:10;;;;;;;0.95;0.9;;;;;;;0.29;100;93307.14;;;;
2021/01/24 06:12:12;;;;;;;0.95;0.9;;;;;;;0.29;100;93307.14;;;;
2021/01/24 06:13:14;;;;;;;0.95;0.9;;;;;;;0.29;100;93307.14;;;;
2021/01/24 06:14:20;;;;;;;0.95;0.9;;;;;;;0.29;100;93307.14;;;;
2021/01/24 06:15:21;;;;;;;0.95;0.9;;;;;;;0.29;100;93307.14;;;;
2021/01/24 06:16:24;;;;;;;0.95;0.9;;;;;;;0.29;100;93307.14;;;;
2021/01/24 06:17:34;;;;;;;0.95;0.9;;;;;;;0.29;100;93307.14;;;;
2021/01/24 06:18:37;;;;;;;0.9;0.9;;;;;;;0.11;100;93316.02;;;;
2021/01/24 06:19:44;;;;;;;0.9;0.9;;;;;;;0.11;100;93316.02;;;;
2021/01/24 06:20:49;;;;;;;0.9;0.9;;;;;;;0.11;100;93316.02;;;;
2021/01/24 06:21:55;;;;;;;0.9;0.9;;;;;;;0.11;100;93316.02;;;;
2021/01/24 06:22:57;;;;;;;0.9;0.9;;;;;;;0.11;100;93316.02;;;;
2021/01/24 06:24:02;;;;;;;0.9;0.9;;;;;;;0.11;100;93316.02;;;;
2021/01/24 06:25:08;;;;;;;0.9;0.9;;;;;;;0.11;100;93316.02;;;;
2021/01/24 06:26:14;;;;;;;0.9;0.9;;;;;;;0.11;100;93316.02;;;;